<?xml version="1.0" encoding="UTF-8" standalone="no" ?>
<gpx xmlns="http://www.topografix.com/GPX/1/1" xmlns:xsi="http://www.w3.org/2001/XMLSchema-instance" xsi:schemaLocation="http://www.topografix.com/GPX/1/1 http://www.topografix.com/GPX/1/1/gpx.xsd" version="1.1" creator="VisuGPX - https://www.visugpx.com">
  <metadata>
    <name>Pointe de Chavasse</name>
    <desc><![CDATA[grp_trc:]]></desc>
  </metadata>
  <trk>
    <name><![CDATA[Mar 7, 2024]]></name>
    <desc><![CDATA[comment ...]]></desc>
    <extensions>
      <line xmlns="http://www.topografix.com/GPX/gpx_style/0/2">
        <color>0000FF</color>
        <width>4</width>
      </line>
    </extensions>
    <trkseg>
      <trkpt lat="46.17044" lon="6.58171">
        <ele>1609</ele>
        <time>2024-03-07T10:08:26Z</time>
      </trkpt>
      <trkpt lat="46.17044" lon="6.58171">
        <ele>1609</ele>
        <time>2024-03-07T10:08:27Z</time>
      </trkpt>
      <trkpt lat="46.17048" lon="6.58171">
        <ele>1606</ele>
        <time>2024-03-07T10:08:59Z</time>
      </trkpt>
      <trkpt lat="46.1705" lon="6.58161">
        <ele>1606</ele>
        <time>2024-03-07T10:09:11Z</time>
      </trkpt>
      <trkpt lat="46.17052" lon="6.58156">
        <ele>1603</ele>
        <time>2024-03-07T10:09:16Z</time>
      </trkpt>
      <trkpt lat="46.17053" lon="6.58151">
        <ele>1602</ele>
        <time>2024-03-07T10:09:21Z</time>
      </trkpt>
      <trkpt lat="46.17056" lon="6.58147">
        <ele>1602</ele>
        <time>2024-03-07T10:09:27Z</time>
      </trkpt>
      <trkpt lat="46.17056" lon="6.58141">
        <ele>1602</ele>
        <time>2024-03-07T10:09:32Z</time>
      </trkpt>
      <trkpt lat="46.17059" lon="6.58138">
        <ele>1603</ele>
        <time>2024-03-07T10:09:37Z</time>
      </trkpt>
      <trkpt lat="46.17062" lon="6.58125">
        <ele>1606</ele>
        <time>2024-03-07T10:09:55Z</time>
      </trkpt>
      <trkpt lat="46.17069" lon="6.58116">
        <ele>1608</ele>
        <time>2024-03-07T10:10:13Z</time>
      </trkpt>
      <trkpt lat="46.17074" lon="6.58104">
        <ele>1610</ele>
        <time>2024-03-07T10:10:31Z</time>
      </trkpt>
      <trkpt lat="46.17082" lon="6.58096">
        <ele>1612</ele>
        <time>2024-03-07T10:10:43Z</time>
      </trkpt>
      <trkpt lat="46.17096" lon="6.58077">
        <ele>1612</ele>
        <time>2024-03-07T10:11:08Z</time>
      </trkpt>
      <trkpt lat="46.17095" lon="6.58064">
        <ele>1612</ele>
        <time>2024-03-07T10:11:24Z</time>
      </trkpt>
      <trkpt lat="46.17103" lon="6.58055">
        <ele>1613</ele>
        <time>2024-03-07T10:11:40Z</time>
      </trkpt>
      <trkpt lat="46.17108" lon="6.58043">
        <ele>1614</ele>
        <time>2024-03-07T10:11:53Z</time>
      </trkpt>
      <trkpt lat="46.17115" lon="6.58035">
        <ele>1615</ele>
        <time>2024-03-07T10:12:06Z</time>
      </trkpt>
      <trkpt lat="46.17124" lon="6.58012">
        <ele>1620</ele>
        <time>2024-03-07T10:12:41Z</time>
      </trkpt>
      <trkpt lat="46.17147" lon="6.5799">
        <ele>1626</ele>
        <time>2024-03-07T10:13:25Z</time>
      </trkpt>
      <trkpt lat="46.17155" lon="6.57986">
        <ele>1628</ele>
        <time>2024-03-07T10:19:36Z</time>
      </trkpt>
      <trkpt lat="46.17173" lon="6.57977">
        <ele>1631</ele>
        <time>2024-03-07T10:20:21Z</time>
      </trkpt>
      <trkpt lat="46.17183" lon="6.57976">
        <ele>1631</ele>
        <time>2024-03-07T10:20:31Z</time>
      </trkpt>
      <trkpt lat="46.17201" lon="6.57967">
        <ele>1634</ele>
        <time>2024-03-07T10:20:52Z</time>
      </trkpt>
      <trkpt lat="46.17229" lon="6.57957">
        <ele>1633</ele>
        <time>2024-03-07T10:21:25Z</time>
      </trkpt>
      <trkpt lat="46.17245" lon="6.57941">
        <ele>1636</ele>
        <time>2024-03-07T10:21:51Z</time>
      </trkpt>
      <trkpt lat="46.17274" lon="6.57931">
        <ele>1637</ele>
        <time>2024-03-07T10:22:29Z</time>
      </trkpt>
      <trkpt lat="46.17303" lon="6.57936">
        <ele>1641</ele>
        <time>2024-03-07T10:23:06Z</time>
      </trkpt>
      <trkpt lat="46.17312" lon="6.5794">
        <ele>1641</ele>
        <time>2024-03-07T10:23:14Z</time>
      </trkpt>
      <trkpt lat="46.17322" lon="6.57941">
        <ele>1643</ele>
        <time>2024-03-07T10:23:28Z</time>
      </trkpt>
      <trkpt lat="46.17332" lon="6.57942">
        <ele>1646</ele>
        <time>2024-03-07T10:23:49Z</time>
      </trkpt>
      <trkpt lat="46.17342" lon="6.57943">
        <ele>1649</ele>
        <time>2024-03-07T10:24:04Z</time>
      </trkpt>
      <trkpt lat="46.17369" lon="6.57935">
        <ele>1650</ele>
        <time>2024-03-07T10:25:19Z</time>
      </trkpt>
      <trkpt lat="46.17373" lon="6.57923">
        <ele>1645</ele>
        <time>2024-03-07T10:26:03Z</time>
      </trkpt>
      <trkpt lat="46.17375" lon="6.5791">
        <ele>1646</ele>
        <time>2024-03-07T10:26:20Z</time>
      </trkpt>
      <trkpt lat="46.17381" lon="6.57898">
        <ele>1650</ele>
        <time>2024-03-07T10:26:34Z</time>
      </trkpt>
      <trkpt lat="46.1739" lon="6.579">
        <ele>1652</ele>
        <time>2024-03-07T10:26:48Z</time>
      </trkpt>
      <trkpt lat="46.17399" lon="6.57902">
        <ele>1659</ele>
        <time>2024-03-07T10:27:07Z</time>
      </trkpt>
      <trkpt lat="46.17408" lon="6.57906">
        <ele>1662</ele>
        <time>2024-03-07T10:27:26Z</time>
      </trkpt>
      <trkpt lat="46.17426" lon="6.57917">
        <ele>1670</ele>
        <time>2024-03-07T10:28:06Z</time>
      </trkpt>
      <trkpt lat="46.17431" lon="6.57907">
        <ele>1669</ele>
        <time>2024-03-07T10:28:17Z</time>
      </trkpt>
      <trkpt lat="46.1743" lon="6.57893">
        <ele>1670</ele>
        <time>2024-03-07T10:28:36Z</time>
      </trkpt>
      <trkpt lat="46.17429" lon="6.5788">
        <ele>1674</ele>
        <time>2024-03-07T10:28:52Z</time>
      </trkpt>
      <trkpt lat="46.17426" lon="6.57867">
        <ele>1673</ele>
        <time>2024-03-07T10:29:11Z</time>
      </trkpt>
      <trkpt lat="46.17423" lon="6.57854">
        <ele>1674</ele>
        <time>2024-03-07T10:29:27Z</time>
      </trkpt>
      <trkpt lat="46.17433" lon="6.57854">
        <ele>1677</ele>
        <time>2024-03-07T10:29:54Z</time>
      </trkpt>
      <trkpt lat="46.17439" lon="6.57863">
        <ele>1679</ele>
        <time>2024-03-07T10:30:10Z</time>
      </trkpt>
      <trkpt lat="46.17448" lon="6.57867">
        <ele>1688</ele>
        <time>2024-03-07T10:30:31Z</time>
      </trkpt>
      <trkpt lat="46.17456" lon="6.57873">
        <ele>1690</ele>
        <time>2024-03-07T10:30:59Z</time>
      </trkpt>
      <trkpt lat="46.17461" lon="6.57864">
        <ele>1693</ele>
        <time>2024-03-07T10:31:27Z</time>
      </trkpt>
      <trkpt lat="46.17456" lon="6.57852">
        <ele>1691</ele>
        <time>2024-03-07T10:31:39Z</time>
      </trkpt>
      <trkpt lat="46.17454" lon="6.57839">
        <ele>1690</ele>
        <time>2024-03-07T10:31:55Z</time>
      </trkpt>
      <trkpt lat="46.17451" lon="6.57827">
        <ele>1692</ele>
        <time>2024-03-07T10:32:13Z</time>
      </trkpt>
      <trkpt lat="46.17452" lon="6.57813">
        <ele>1694</ele>
        <time>2024-03-07T10:32:30Z</time>
      </trkpt>
      <trkpt lat="46.17452" lon="6.57801">
        <ele>1701</ele>
        <time>2024-03-07T10:32:57Z</time>
      </trkpt>
      <trkpt lat="46.17447" lon="6.57789">
        <ele>1704</ele>
        <time>2024-03-07T10:33:15Z</time>
      </trkpt>
      <trkpt lat="46.17446" lon="6.57774">
        <ele>1704</ele>
        <time>2024-03-07T10:33:36Z</time>
      </trkpt>
      <trkpt lat="46.1745" lon="6.57771">
        <ele>1709</ele>
        <time>2024-03-07T10:34:06Z</time>
      </trkpt>
      <trkpt lat="46.17459" lon="6.57777">
        <ele>1713</ele>
        <time>2024-03-07T10:34:20Z</time>
      </trkpt>
      <trkpt lat="46.17478" lon="6.57779">
        <ele>1727</ele>
        <time>2024-03-07T10:35:05Z</time>
      </trkpt>
      <trkpt lat="46.17486" lon="6.57786">
        <ele>1734</ele>
        <time>2024-03-07T10:35:28Z</time>
      </trkpt>
      <trkpt lat="46.17489" lon="6.57772">
        <ele>1734</ele>
        <time>2024-03-07T10:35:39Z</time>
      </trkpt>
      <trkpt lat="46.17483" lon="6.57761">
        <ele>1733</ele>
        <time>2024-03-07T10:35:52Z</time>
      </trkpt>
      <trkpt lat="46.17483" lon="6.57747">
        <ele>1731</ele>
        <time>2024-03-07T10:36:12Z</time>
      </trkpt>
      <trkpt lat="46.1748" lon="6.57734">
        <ele>1732</ele>
        <time>2024-03-07T10:36:27Z</time>
      </trkpt>
      <trkpt lat="46.17486" lon="6.57724">
        <ele>1739</ele>
        <time>2024-03-07T10:37:11Z</time>
      </trkpt>
      <trkpt lat="46.17492" lon="6.57736">
        <ele>1743</ele>
        <time>2024-03-07T10:37:28Z</time>
      </trkpt>
      <trkpt lat="46.175" lon="6.57743">
        <ele>1751</ele>
        <time>2024-03-07T10:37:44Z</time>
      </trkpt>
      <trkpt lat="46.1751" lon="6.57745">
        <ele>1753</ele>
        <time>2024-03-07T10:38:04Z</time>
      </trkpt>
      <trkpt lat="46.1751" lon="6.57731">
        <ele>1749</ele>
        <time>2024-03-07T10:38:31Z</time>
      </trkpt>
      <trkpt lat="46.17508" lon="6.57718">
        <ele>1749</ele>
        <time>2024-03-07T10:38:48Z</time>
      </trkpt>
      <trkpt lat="46.17505" lon="6.57705">
        <ele>1752</ele>
        <time>2024-03-07T10:39:10Z</time>
      </trkpt>
      <trkpt lat="46.17514" lon="6.57701">
        <ele>1757</ele>
        <time>2024-03-07T10:39:53Z</time>
      </trkpt>
      <trkpt lat="46.17521" lon="6.57695">
        <ele>1765</ele>
        <time>2024-03-07T10:40:36Z</time>
      </trkpt>
      <trkpt lat="46.1752" lon="6.57682">
        <ele>1768</ele>
        <time>2024-03-07T10:41:02Z</time>
      </trkpt>
      <trkpt lat="46.17525" lon="6.57668">
        <ele>1774</ele>
        <time>2024-03-07T10:41:57Z</time>
      </trkpt>
      <trkpt lat="46.17532" lon="6.57662">
        <ele>1779</ele>
        <time>2024-03-07T10:42:26Z</time>
      </trkpt>
      <trkpt lat="46.17537" lon="6.57653">
        <ele>1785</ele>
        <time>2024-03-07T10:43:12Z</time>
      </trkpt>
      <trkpt lat="46.17539" lon="6.57641">
        <ele>1788</ele>
        <time>2024-03-07T10:43:34Z</time>
      </trkpt>
      <trkpt lat="46.17541" lon="6.57628">
        <ele>1794</ele>
        <time>2024-03-07T10:44:17Z</time>
      </trkpt>
      <trkpt lat="46.1754" lon="6.57615">
        <ele>1794</ele>
        <time>2024-03-07T10:44:36Z</time>
      </trkpt>
      <trkpt lat="46.17547" lon="6.57604">
        <ele>1796</ele>
        <time>2024-03-07T10:44:51Z</time>
      </trkpt>
      <trkpt lat="46.17553" lon="6.57595">
        <ele>1802</ele>
        <time>2024-03-07T10:45:09Z</time>
      </trkpt>
      <trkpt lat="46.17557" lon="6.57583">
        <ele>1803</ele>
        <time>2024-03-07T10:45:23Z</time>
      </trkpt>
      <trkpt lat="46.17559" lon="6.57579">
        <ele>1808</ele>
        <time>2024-03-07T10:47:28Z</time>
      </trkpt>
      <trkpt lat="46.17566" lon="6.5757">
        <ele>1806</ele>
        <time>2024-03-07T11:12:26Z</time>
      </trkpt>
      <trkpt lat="46.17574" lon="6.57542">
        <ele>1806</ele>
        <time>2024-03-07T11:12:38Z</time>
      </trkpt>
      <trkpt lat="46.17573" lon="6.57535">
        <ele>1800</ele>
        <time>2024-03-07T11:12:41Z</time>
      </trkpt>
      <trkpt lat="46.17579" lon="6.57524">
        <ele>1800</ele>
        <time>2024-03-07T11:12:59Z</time>
      </trkpt>
      <trkpt lat="46.1758" lon="6.57495">
        <ele>1803</ele>
        <time>2024-03-07T11:13:14Z</time>
      </trkpt>
      <trkpt lat="46.1758" lon="6.57481">
        <ele>1806</ele>
        <time>2024-03-07T11:13:28Z</time>
      </trkpt>
      <trkpt lat="46.17575" lon="6.5747">
        <ele>1806</ele>
        <time>2024-03-07T11:13:45Z</time>
      </trkpt>
      <trkpt lat="46.17569" lon="6.57459">
        <ele>1801</ele>
        <time>2024-03-07T11:13:59Z</time>
      </trkpt>
      <trkpt lat="46.17561" lon="6.57453">
        <ele>1802</ele>
        <time>2024-03-07T11:14:14Z</time>
      </trkpt>
      <trkpt lat="46.1754" lon="6.57443">
        <ele>1813</ele>
        <time>2024-03-07T11:14:48Z</time>
      </trkpt>
      <trkpt lat="46.17532" lon="6.57432">
        <ele>1810</ele>
        <time>2024-03-07T11:15:01Z</time>
      </trkpt>
      <trkpt lat="46.17522" lon="6.57425">
        <ele>1814</ele>
        <time>2024-03-07T11:15:22Z</time>
      </trkpt>
      <trkpt lat="46.17513" lon="6.57431">
        <ele>1819</ele>
        <time>2024-03-07T11:15:36Z</time>
      </trkpt>
      <trkpt lat="46.17503" lon="6.57429">
        <ele>1823</ele>
        <time>2024-03-07T11:15:50Z</time>
      </trkpt>
      <trkpt lat="46.17494" lon="6.57422">
        <ele>1828</ele>
        <time>2024-03-07T11:16:04Z</time>
      </trkpt>
      <trkpt lat="46.17486" lon="6.5743">
        <ele>1831</ele>
        <time>2024-03-07T11:16:22Z</time>
      </trkpt>
      <trkpt lat="46.17486" lon="6.57416">
        <ele>1829</ele>
        <time>2024-03-07T11:16:54Z</time>
      </trkpt>
      <trkpt lat="46.1749" lon="6.57405">
        <ele>1829</ele>
        <time>2024-03-07T11:17:12Z</time>
      </trkpt>
      <trkpt lat="46.17481" lon="6.57401">
        <ele>1837</ele>
        <time>2024-03-07T11:17:57Z</time>
      </trkpt>
      <trkpt lat="46.17478" lon="6.57388">
        <ele>1838</ele>
        <time>2024-03-07T11:18:08Z</time>
      </trkpt>
      <trkpt lat="46.17474" lon="6.57376">
        <ele>1848</ele>
        <time>2024-03-07T11:18:21Z</time>
      </trkpt>
      <trkpt lat="46.17476" lon="6.57363">
        <ele>1849</ele>
        <time>2024-03-07T11:18:35Z</time>
      </trkpt>
      <trkpt lat="46.17477" lon="6.5735">
        <ele>1852</ele>
        <time>2024-03-07T11:18:53Z</time>
      </trkpt>
      <trkpt lat="46.17473" lon="6.57338">
        <ele>1851</ele>
        <time>2024-03-07T11:19:06Z</time>
      </trkpt>
      <trkpt lat="46.17472" lon="6.57325">
        <ele>1852</ele>
        <time>2024-03-07T11:19:20Z</time>
      </trkpt>
      <trkpt lat="46.17476" lon="6.57312">
        <ele>1854</ele>
        <time>2024-03-07T11:19:36Z</time>
      </trkpt>
      <trkpt lat="46.17473" lon="6.573">
        <ele>1859</ele>
        <time>2024-03-07T11:19:52Z</time>
      </trkpt>
      <trkpt lat="46.17469" lon="6.57288">
        <ele>1860</ele>
        <time>2024-03-07T11:20:09Z</time>
      </trkpt>
      <trkpt lat="46.17465" lon="6.57277">
        <ele>1864</ele>
        <time>2024-03-07T11:20:22Z</time>
      </trkpt>
      <trkpt lat="46.17461" lon="6.57265">
        <ele>1866</ele>
        <time>2024-03-07T11:20:41Z</time>
      </trkpt>
      <trkpt lat="46.17459" lon="6.57252">
        <ele>1869</ele>
        <time>2024-03-07T11:21:03Z</time>
      </trkpt>
      <trkpt lat="46.17451" lon="6.57226">
        <ele>1871</ele>
        <time>2024-03-07T11:21:35Z</time>
      </trkpt>
      <trkpt lat="46.17442" lon="6.57224">
        <ele>1870</ele>
        <time>2024-03-07T11:21:41Z</time>
      </trkpt>
      <trkpt lat="46.17447" lon="6.57212">
        <ele>1872</ele>
        <time>2024-03-07T11:21:55Z</time>
      </trkpt>
      <trkpt lat="46.17443" lon="6.57199">
        <ele>1875</ele>
        <time>2024-03-07T11:22:10Z</time>
      </trkpt>
      <trkpt lat="46.17435" lon="6.57191">
        <ele>1875</ele>
        <time>2024-03-07T11:22:24Z</time>
      </trkpt>
      <trkpt lat="46.17428" lon="6.57182">
        <ele>1875</ele>
        <time>2024-03-07T11:22:36Z</time>
      </trkpt>
      <trkpt lat="46.17421" lon="6.57172">
        <ele>1878</ele>
        <time>2024-03-07T11:22:58Z</time>
      </trkpt>
      <trkpt lat="46.17423" lon="6.5716">
        <ele>1889</ele>
        <time>2024-03-07T11:23:31Z</time>
      </trkpt>
      <trkpt lat="46.17432" lon="6.57153">
        <ele>1890</ele>
        <time>2024-03-07T11:23:47Z</time>
      </trkpt>
      <trkpt lat="46.1744" lon="6.57148">
        <ele>1893</ele>
        <time>2024-03-07T11:24:02Z</time>
      </trkpt>
      <trkpt lat="46.17449" lon="6.5715">
        <ele>1894</ele>
        <time>2024-03-07T11:24:17Z</time>
      </trkpt>
      <trkpt lat="46.17469" lon="6.57156">
        <ele>1902</ele>
        <time>2024-03-07T11:24:55Z</time>
      </trkpt>
      <trkpt lat="46.17479" lon="6.57156">
        <ele>1906</ele>
        <time>2024-03-07T11:25:07Z</time>
      </trkpt>
      <trkpt lat="46.17488" lon="6.5716">
        <ele>1909</ele>
        <time>2024-03-07T11:25:26Z</time>
      </trkpt>
      <trkpt lat="46.17504" lon="6.57175">
        <ele>1920</ele>
        <time>2024-03-07T11:26:12Z</time>
      </trkpt>
      <trkpt lat="46.1751" lon="6.5717">
        <ele>1926</ele>
        <time>2024-03-07T11:27:05Z</time>
      </trkpt>
      <trkpt lat="46.17512" lon="6.57157">
        <ele>1926</ele>
        <time>2024-03-07T11:27:18Z</time>
      </trkpt>
      <trkpt lat="46.17521" lon="6.5716">
        <ele>1933</ele>
        <time>2024-03-07T11:27:57Z</time>
      </trkpt>
      <trkpt lat="46.17521" lon="6.57147">
        <ele>1935</ele>
        <time>2024-03-07T11:28:22Z</time>
      </trkpt>
      <trkpt lat="46.1753" lon="6.57147">
        <ele>1941</ele>
        <time>2024-03-07T11:28:50Z</time>
      </trkpt>
      <trkpt lat="46.17531" lon="6.57134">
        <ele>1942</ele>
        <time>2024-03-07T11:29:10Z</time>
      </trkpt>
      <trkpt lat="46.1753" lon="6.57122">
        <ele>1948</ele>
        <time>2024-03-07T11:36:09Z</time>
      </trkpt>
      <trkpt lat="46.1753" lon="6.57127">
        <ele>1953</ele>
        <time>2024-03-07T11:36:51Z</time>
      </trkpt>
      <trkpt lat="46.17538" lon="6.5712">
        <ele>1953</ele>
        <time>2024-03-07T11:52:24Z</time>
      </trkpt>
      <trkpt lat="46.17547" lon="6.57126">
        <ele>1953</ele>
        <time>2024-03-07T11:52:44Z</time>
      </trkpt>
      <trkpt lat="46.17557" lon="6.57129">
        <ele>1942</ele>
        <time>2024-03-07T11:52:50Z</time>
      </trkpt>
      <trkpt lat="46.17568" lon="6.57124">
        <ele>1941</ele>
        <time>2024-03-07T11:52:54Z</time>
      </trkpt>
      <trkpt lat="46.17571" lon="6.5711">
        <ele>1940</ele>
        <time>2024-03-07T11:53:08Z</time>
      </trkpt>
      <trkpt lat="46.17579" lon="6.57106">
        <ele>1922</ele>
        <time>2024-03-07T11:53:35Z</time>
      </trkpt>
      <trkpt lat="46.17587" lon="6.57115">
        <ele>1921</ele>
        <time>2024-03-07T11:53:38Z</time>
      </trkpt>
      <trkpt lat="46.17599" lon="6.57116">
        <ele>1913</ele>
        <time>2024-03-07T11:53:46Z</time>
      </trkpt>
      <trkpt lat="46.1761" lon="6.57116">
        <ele>1910</ele>
        <time>2024-03-07T11:53:48Z</time>
      </trkpt>
      <trkpt lat="46.17617" lon="6.57106">
        <ele>1902</ele>
        <time>2024-03-07T11:53:52Z</time>
      </trkpt>
      <trkpt lat="46.1764" lon="6.57118">
        <ele>1887</ele>
        <time>2024-03-07T11:54:19Z</time>
      </trkpt>
      <trkpt lat="46.17654" lon="6.57129">
        <ele>1884</ele>
        <time>2024-03-07T11:54:22Z</time>
      </trkpt>
      <trkpt lat="46.17665" lon="6.57118">
        <ele>1879</ele>
        <time>2024-03-07T11:54:24Z</time>
      </trkpt>
      <trkpt lat="46.17674" lon="6.57124">
        <ele>1873</ele>
        <time>2024-03-07T11:54:29Z</time>
      </trkpt>
      <trkpt lat="46.1768" lon="6.57138">
        <ele>1867</ele>
        <time>2024-03-07T11:54:31Z</time>
      </trkpt>
      <trkpt lat="46.17691" lon="6.57146">
        <ele>1862</ele>
        <time>2024-03-07T11:54:35Z</time>
      </trkpt>
      <trkpt lat="46.17701" lon="6.57159">
        <ele>1853</ele>
        <time>2024-03-07T11:54:38Z</time>
      </trkpt>
      <trkpt lat="46.17712" lon="6.5715">
        <ele>1851</ele>
        <time>2024-03-07T11:54:40Z</time>
      </trkpt>
      <trkpt lat="46.17716" lon="6.57165">
        <ele>1834</ele>
        <time>2024-03-07T11:54:57Z</time>
      </trkpt>
      <trkpt lat="46.17722" lon="6.57176">
        <ele>1831</ele>
        <time>2024-03-07T11:54:59Z</time>
      </trkpt>
      <trkpt lat="46.1773" lon="6.57188">
        <ele>1825</ele>
        <time>2024-03-07T11:55:01Z</time>
      </trkpt>
      <trkpt lat="46.17741" lon="6.57192">
        <ele>1821</ele>
        <time>2024-03-07T11:55:03Z</time>
      </trkpt>
      <trkpt lat="46.17742" lon="6.57206">
        <ele>1817</ele>
        <time>2024-03-07T11:55:05Z</time>
      </trkpt>
      <trkpt lat="46.17745" lon="6.57223">
        <ele>1812</ele>
        <time>2024-03-07T11:55:09Z</time>
      </trkpt>
      <trkpt lat="46.17752" lon="6.57236">
        <ele>1805</ele>
        <time>2024-03-07T11:55:12Z</time>
      </trkpt>
      <trkpt lat="46.17753" lon="6.57249">
        <ele>1802</ele>
        <time>2024-03-07T11:55:14Z</time>
      </trkpt>
      <trkpt lat="46.17759" lon="6.57261">
        <ele>1798</ele>
        <time>2024-03-07T11:55:16Z</time>
      </trkpt>
      <trkpt lat="46.17763" lon="6.57278">
        <ele>1795</ele>
        <time>2024-03-07T11:55:19Z</time>
      </trkpt>
      <trkpt lat="46.17765" lon="6.57292">
        <ele>1789</ele>
        <time>2024-03-07T11:55:22Z</time>
      </trkpt>
      <trkpt lat="46.17772" lon="6.57304">
        <ele>1786</ele>
        <time>2024-03-07T11:55:25Z</time>
      </trkpt>
      <trkpt lat="46.17774" lon="6.57319">
        <ele>1777</ele>
        <time>2024-03-07T11:55:28Z</time>
      </trkpt>
      <trkpt lat="46.17787" lon="6.57352">
        <ele>1764</ele>
        <time>2024-03-07T11:55:37Z</time>
      </trkpt>
      <trkpt lat="46.17785" lon="6.57366">
        <ele>1755</ele>
        <time>2024-03-07T11:55:52Z</time>
      </trkpt>
      <trkpt lat="46.17782" lon="6.57381">
        <ele>1754</ele>
        <time>2024-03-07T11:55:56Z</time>
      </trkpt>
      <trkpt lat="46.17774" lon="6.57389">
        <ele>1750</ele>
        <time>2024-03-07T11:55:59Z</time>
      </trkpt>
      <trkpt lat="46.17776" lon="6.57402">
        <ele>1748</ele>
        <time>2024-03-07T11:56:01Z</time>
      </trkpt>
      <trkpt lat="46.1778" lon="6.57456">
        <ele>1744</ele>
        <time>2024-03-07T11:56:08Z</time>
      </trkpt>
      <trkpt lat="46.17785" lon="6.57468">
        <ele>1738</ele>
        <time>2024-03-07T12:02:52Z</time>
      </trkpt>
      <trkpt lat="46.17777" lon="6.57479">
        <ele>1736</ele>
        <time>2024-03-07T12:03:03Z</time>
      </trkpt>
      <trkpt lat="46.17766" lon="6.57481">
        <ele>1736</ele>
        <time>2024-03-07T12:03:12Z</time>
      </trkpt>
      <trkpt lat="46.17757" lon="6.57483">
        <ele>1737</ele>
        <time>2024-03-07T12:03:24Z</time>
      </trkpt>
      <trkpt lat="46.17748" lon="6.57478">
        <ele>1741</ele>
        <time>2024-03-07T12:03:47Z</time>
      </trkpt>
      <trkpt lat="46.17739" lon="6.5747">
        <ele>1747</ele>
        <time>2024-03-07T12:03:59Z</time>
      </trkpt>
      <trkpt lat="46.17732" lon="6.5746">
        <ele>1750</ele>
        <time>2024-03-07T12:04:16Z</time>
      </trkpt>
      <trkpt lat="46.17722" lon="6.57458">
        <ele>1755</ele>
        <time>2024-03-07T12:05:22Z</time>
      </trkpt>
      <trkpt lat="46.17712" lon="6.57454">
        <ele>1755</ele>
        <time>2024-03-07T12:05:34Z</time>
      </trkpt>
      <trkpt lat="46.17712" lon="6.5747">
        <ele>1754</ele>
        <time>2024-03-07T12:05:44Z</time>
      </trkpt>
      <trkpt lat="46.17716" lon="6.57482">
        <ele>1754</ele>
        <time>2024-03-07T12:05:54Z</time>
      </trkpt>
      <trkpt lat="46.17718" lon="6.57495">
        <ele>1761</ele>
        <time>2024-03-07T12:06:13Z</time>
      </trkpt>
      <trkpt lat="46.17723" lon="6.57507">
        <ele>1763</ele>
        <time>2024-03-07T12:06:26Z</time>
      </trkpt>
      <trkpt lat="46.17713" lon="6.57512">
        <ele>1765</ele>
        <time>2024-03-07T12:08:18Z</time>
      </trkpt>
      <trkpt lat="46.17704" lon="6.57507">
        <ele>1766</ele>
        <time>2024-03-07T12:08:27Z</time>
      </trkpt>
      <trkpt lat="46.17696" lon="6.57501">
        <ele>1768</ele>
        <time>2024-03-07T12:08:36Z</time>
      </trkpt>
      <trkpt lat="46.17688" lon="6.57495">
        <ele>1774</ele>
        <time>2024-03-07T12:08:49Z</time>
      </trkpt>
      <trkpt lat="46.17679" lon="6.5749">
        <ele>1776</ele>
        <time>2024-03-07T12:09:07Z</time>
      </trkpt>
      <trkpt lat="46.17671" lon="6.57483">
        <ele>1778</ele>
        <time>2024-03-07T12:09:25Z</time>
      </trkpt>
      <trkpt lat="46.17662" lon="6.57482">
        <ele>1782</ele>
        <time>2024-03-07T12:09:47Z</time>
      </trkpt>
      <trkpt lat="46.17656" lon="6.57472">
        <ele>1783</ele>
        <time>2024-03-07T12:10:04Z</time>
      </trkpt>
      <trkpt lat="46.17651" lon="6.57482">
        <ele>1787</ele>
        <time>2024-03-07T12:10:19Z</time>
      </trkpt>
      <trkpt lat="46.1765" lon="6.57495">
        <ele>1786</ele>
        <time>2024-03-07T12:10:33Z</time>
      </trkpt>
      <trkpt lat="46.17645" lon="6.57508">
        <ele>1789</ele>
        <time>2024-03-07T12:11:50Z</time>
      </trkpt>
      <trkpt lat="46.17635" lon="6.57505">
        <ele>1789</ele>
        <time>2024-03-07T12:12:04Z</time>
      </trkpt>
      <trkpt lat="46.17628" lon="6.57496">
        <ele>1795</ele>
        <time>2024-03-07T12:12:19Z</time>
      </trkpt>
      <trkpt lat="46.17627" lon="6.57482">
        <ele>1800</ele>
        <time>2024-03-07T12:12:58Z</time>
      </trkpt>
      <trkpt lat="46.17619" lon="6.57488">
        <ele>1803</ele>
        <time>2024-03-07T12:13:18Z</time>
      </trkpt>
      <trkpt lat="46.17609" lon="6.5749">
        <ele>1807</ele>
        <time>2024-03-07T12:13:31Z</time>
      </trkpt>
      <trkpt lat="46.176" lon="6.57491">
        <ele>1810</ele>
        <time>2024-03-07T12:13:45Z</time>
      </trkpt>
      <trkpt lat="46.17593" lon="6.575">
        <ele>1810</ele>
        <time>2024-03-07T12:13:58Z</time>
      </trkpt>
      <trkpt lat="46.1759" lon="6.57513">
        <ele>1810</ele>
        <time>2024-03-07T12:14:10Z</time>
      </trkpt>
      <trkpt lat="46.17588" lon="6.57527">
        <ele>1807</ele>
        <time>2024-03-07T12:14:20Z</time>
      </trkpt>
      <trkpt lat="46.17586" lon="6.5754">
        <ele>1806</ele>
        <time>2024-03-07T12:14:25Z</time>
      </trkpt>
      <trkpt lat="46.17574" lon="6.57562">
        <ele>1808</ele>
        <time>2024-03-07T12:14:48Z</time>
      </trkpt>
      <trkpt lat="46.17568" lon="6.57573">
        <ele>1809</ele>
        <time>2024-03-07T12:14:56Z</time>
      </trkpt>
      <trkpt lat="46.17561" lon="6.5758">
        <ele>1809</ele>
        <time>2024-03-07T12:15:24Z</time>
      </trkpt>
      <trkpt lat="46.17559" lon="6.57585">
        <ele>1813</ele>
        <time>2024-03-07T12:49:38Z</time>
      </trkpt>
      <trkpt lat="46.17558" lon="6.57593">
        <ele>1814</ele>
        <time>2024-03-07T12:49:41Z</time>
      </trkpt>
      <trkpt lat="46.17557" lon="6.57597">
        <ele>1813</ele>
        <time>2024-03-07T12:49:42Z</time>
      </trkpt>
      <trkpt lat="46.17554" lon="6.57601">
        <ele>1812</ele>
        <time>2024-03-07T12:49:43Z</time>
      </trkpt>
      <trkpt lat="46.17544" lon="6.57608">
        <ele>1811</ele>
        <time>2024-03-07T12:49:45Z</time>
      </trkpt>
      <trkpt lat="46.17528" lon="6.57613">
        <ele>1809</ele>
        <time>2024-03-07T12:49:48Z</time>
      </trkpt>
      <trkpt lat="46.17526" lon="6.57618">
        <ele>1808</ele>
        <time>2024-03-07T12:49:49Z</time>
      </trkpt>
      <trkpt lat="46.17528" lon="6.57622">
        <ele>1807</ele>
        <time>2024-03-07T12:49:50Z</time>
      </trkpt>
      <trkpt lat="46.17527" lon="6.57628">
        <ele>1806</ele>
        <time>2024-03-07T12:49:52Z</time>
      </trkpt>
      <trkpt lat="46.17526" lon="6.57634">
        <ele>1804</ele>
        <time>2024-03-07T12:49:55Z</time>
      </trkpt>
      <trkpt lat="46.17531" lon="6.57635">
        <ele>1803</ele>
        <time>2024-03-07T12:49:57Z</time>
      </trkpt>
      <trkpt lat="46.17532" lon="6.57642">
        <ele>1801</ele>
        <time>2024-03-07T12:49:59Z</time>
      </trkpt>
      <trkpt lat="46.17528" lon="6.57645">
        <ele>1800</ele>
        <time>2024-03-07T12:50:01Z</time>
      </trkpt>
      <trkpt lat="46.17537" lon="6.57659">
        <ele>1797</ele>
        <time>2024-03-07T12:50:04Z</time>
      </trkpt>
      <trkpt lat="46.17542" lon="6.57668">
        <ele>1797</ele>
        <time>2024-03-07T12:50:06Z</time>
      </trkpt>
      <trkpt lat="46.17537" lon="6.57681">
        <ele>1796</ele>
        <time>2024-03-07T12:50:09Z</time>
      </trkpt>
      <trkpt lat="46.17527" lon="6.57686">
        <ele>1791</ele>
        <time>2024-03-07T12:50:13Z</time>
      </trkpt>
      <trkpt lat="46.17526" lon="6.57699">
        <ele>1787</ele>
        <time>2024-03-07T12:50:18Z</time>
      </trkpt>
      <trkpt lat="46.17517" lon="6.57704">
        <ele>1784</ele>
        <time>2024-03-07T12:50:25Z</time>
      </trkpt>
      <trkpt lat="46.17518" lon="6.57719">
        <ele>1775</ele>
        <time>2024-03-07T12:50:29Z</time>
      </trkpt>
      <trkpt lat="46.17512" lon="6.5773">
        <ele>1771</ele>
        <time>2024-03-07T12:50:35Z</time>
      </trkpt>
      <trkpt lat="46.17509" lon="6.57742">
        <ele>1763</ele>
        <time>2024-03-07T12:50:39Z</time>
      </trkpt>
      <trkpt lat="46.17503" lon="6.57753">
        <ele>1761</ele>
        <time>2024-03-07T12:50:42Z</time>
      </trkpt>
      <trkpt lat="46.17491" lon="6.57752">
        <ele>1755</ele>
        <time>2024-03-07T12:50:45Z</time>
      </trkpt>
      <trkpt lat="46.17486" lon="6.57766">
        <ele>1751</ele>
        <time>2024-03-07T12:50:48Z</time>
      </trkpt>
      <trkpt lat="46.1748" lon="6.57777">
        <ele>1741</ele>
        <time>2024-03-07T12:50:51Z</time>
      </trkpt>
      <trkpt lat="46.17472" lon="6.57784">
        <ele>1737</ele>
        <time>2024-03-07T12:50:55Z</time>
      </trkpt>
      <trkpt lat="46.17468" lon="6.57799">
        <ele>1726</ele>
        <time>2024-03-07T12:51:30Z</time>
      </trkpt>
      <trkpt lat="46.17467" lon="6.57815">
        <ele>1721</ele>
        <time>2024-03-07T12:51:33Z</time>
      </trkpt>
      <trkpt lat="46.17461" lon="6.57826">
        <ele>1718</ele>
        <time>2024-03-07T12:51:35Z</time>
      </trkpt>
      <trkpt lat="46.17454" lon="6.5784">
        <ele>1713</ele>
        <time>2024-03-07T12:51:38Z</time>
      </trkpt>
      <trkpt lat="46.17445" lon="6.57846">
        <ele>1709</ele>
        <time>2024-03-07T12:51:41Z</time>
      </trkpt>
      <trkpt lat="46.17437" lon="6.5785">
        <ele>1706</ele>
        <time>2024-03-07T12:51:43Z</time>
      </trkpt>
      <trkpt lat="46.17434" lon="6.57858">
        <ele>1704</ele>
        <time>2024-03-07T12:51:45Z</time>
      </trkpt>
      <trkpt lat="46.17431" lon="6.57863">
        <ele>1702</ele>
        <time>2024-03-07T12:51:46Z</time>
      </trkpt>
      <trkpt lat="46.1743" lon="6.57869">
        <ele>1701</ele>
        <time>2024-03-07T12:51:47Z</time>
      </trkpt>
      <trkpt lat="46.17427" lon="6.57875">
        <ele>1698</ele>
        <time>2024-03-07T12:51:48Z</time>
      </trkpt>
      <trkpt lat="46.17421" lon="6.57878">
        <ele>1696</ele>
        <time>2024-03-07T12:51:49Z</time>
      </trkpt>
      <trkpt lat="46.17422" lon="6.57887">
        <ele>1693</ele>
        <time>2024-03-07T12:51:50Z</time>
      </trkpt>
      <trkpt lat="46.17419" lon="6.57892">
        <ele>1691</ele>
        <time>2024-03-07T12:51:51Z</time>
      </trkpt>
      <trkpt lat="46.17414" lon="6.57895">
        <ele>1687</ele>
        <time>2024-03-07T12:51:52Z</time>
      </trkpt>
      <trkpt lat="46.17411" lon="6.57902">
        <ele>1684</ele>
        <time>2024-03-07T12:51:53Z</time>
      </trkpt>
      <trkpt lat="46.17401" lon="6.57907">
        <ele>1680</ele>
        <time>2024-03-07T12:51:55Z</time>
      </trkpt>
      <trkpt lat="46.17398" lon="6.57912">
        <ele>1676</ele>
        <time>2024-03-07T12:51:56Z</time>
      </trkpt>
      <trkpt lat="46.17391" lon="6.57911">
        <ele>1673</ele>
        <time>2024-03-07T12:51:57Z</time>
      </trkpt>
      <trkpt lat="46.17387" lon="6.57917">
        <ele>1671</ele>
        <time>2024-03-07T12:51:58Z</time>
      </trkpt>
      <trkpt lat="46.17382" lon="6.5792">
        <ele>1668</ele>
        <time>2024-03-07T12:51:59Z</time>
      </trkpt>
      <trkpt lat="46.17376" lon="6.57921">
        <ele>1666</ele>
        <time>2024-03-07T12:52:00Z</time>
      </trkpt>
      <trkpt lat="46.17372" lon="6.57928">
        <ele>1664</ele>
        <time>2024-03-07T12:52:01Z</time>
      </trkpt>
      <trkpt lat="46.17365" lon="6.57929">
        <ele>1663</ele>
        <time>2024-03-07T12:52:02Z</time>
      </trkpt>
      <trkpt lat="46.17359" lon="6.57933">
        <ele>1661</ele>
        <time>2024-03-07T12:52:03Z</time>
      </trkpt>
      <trkpt lat="46.17354" lon="6.57936">
        <ele>1659</ele>
        <time>2024-03-07T12:52:04Z</time>
      </trkpt>
      <trkpt lat="46.17346" lon="6.57934">
        <ele>1658</ele>
        <time>2024-03-07T12:52:05Z</time>
      </trkpt>
      <trkpt lat="46.17339" lon="6.57934">
        <ele>1656</ele>
        <time>2024-03-07T12:52:06Z</time>
      </trkpt>
      <trkpt lat="46.17333" lon="6.57938">
        <ele>1655</ele>
        <time>2024-03-07T12:52:07Z</time>
      </trkpt>
      <trkpt lat="46.17326" lon="6.57938">
        <ele>1653</ele>
        <time>2024-03-07T12:52:08Z</time>
      </trkpt>
      <trkpt lat="46.17305" lon="6.57932">
        <ele>1648</ele>
        <time>2024-03-07T12:52:11Z</time>
      </trkpt>
      <trkpt lat="46.17297" lon="6.57928">
        <ele>1648</ele>
        <time>2024-03-07T12:52:14Z</time>
      </trkpt>
      <trkpt lat="46.17287" lon="6.57927">
        <ele>1645</ele>
        <time>2024-03-07T12:53:04Z</time>
      </trkpt>
      <trkpt lat="46.17274" lon="6.57927">
        <ele>1640</ele>
        <time>2024-03-07T12:53:07Z</time>
      </trkpt>
      <trkpt lat="46.17255" lon="6.57933">
        <ele>1638</ele>
        <time>2024-03-07T12:53:11Z</time>
      </trkpt>
      <trkpt lat="46.17221" lon="6.57953">
        <ele>1635</ele>
        <time>2024-03-07T12:53:19Z</time>
      </trkpt>
      <trkpt lat="46.17121" lon="6.57995">
        <ele>1629</ele>
        <time>2024-03-07T12:53:44Z</time>
      </trkpt>
      <trkpt lat="46.17112" lon="6.58006">
        <ele>1628</ele>
        <time>2024-03-07T12:53:49Z</time>
      </trkpt>
      <trkpt lat="46.17108" lon="6.58025">
        <ele>1626</ele>
        <time>2024-03-07T12:53:52Z</time>
      </trkpt>
      <trkpt lat="46.17103" lon="6.58038">
        <ele>1623</ele>
        <time>2024-03-07T12:53:54Z</time>
      </trkpt>
      <trkpt lat="46.17095" lon="6.58049">
        <ele>1622</ele>
        <time>2024-03-07T12:53:56Z</time>
      </trkpt>
      <trkpt lat="46.17095" lon="6.58064">
        <ele>1619</ele>
        <time>2024-03-07T12:53:58Z</time>
      </trkpt>
      <trkpt lat="46.17086" lon="6.58066">
        <ele>1618</ele>
        <time>2024-03-07T12:54:00Z</time>
      </trkpt>
      <trkpt lat="46.17079" lon="6.58078">
        <ele>1615</ele>
        <time>2024-03-07T12:54:02Z</time>
      </trkpt>
      <trkpt lat="46.17074" lon="6.58089">
        <ele>1613</ele>
        <time>2024-03-07T12:54:04Z</time>
      </trkpt>
      <trkpt lat="46.17068" lon="6.581">
        <ele>1612</ele>
        <time>2024-03-07T12:54:06Z</time>
      </trkpt>
      <trkpt lat="46.17064" lon="6.58112">
        <ele>1611</ele>
        <time>2024-03-07T12:54:08Z</time>
      </trkpt>
      <trkpt lat="46.17058" lon="6.58123">
        <ele>1610</ele>
        <time>2024-03-07T12:54:11Z</time>
      </trkpt>
      <trkpt lat="46.17048" lon="6.5814">
        <ele>1608</ele>
        <time>2024-03-07T12:54:14Z</time>
      </trkpt>
      <trkpt lat="46.17047" lon="6.58148">
        <ele>1607</ele>
        <time>2024-03-07T12:54:15Z</time>
      </trkpt>
      <trkpt lat="46.17043" lon="6.58155">
        <ele>1605</ele>
        <time>2024-03-07T12:54:16Z</time>
      </trkpt>
      <trkpt lat="46.17042" lon="6.58163">
        <ele>1604</ele>
        <time>2024-03-07T12:54:17Z</time>
      </trkpt>
      <trkpt lat="46.17043" lon="6.58169">
        <ele>1603</ele>
        <time>2024-03-07T12:54:18Z</time>
      </trkpt>
      <trkpt lat="46.17044" lon="6.58177">
        <ele>1602</ele>
        <time>2024-03-07T12:54:19Z</time>
      </trkpt>
      <trkpt lat="46.17039" lon="6.58201">
        <ele>1601</ele>
        <time>2024-03-07T12:54:22Z</time>
      </trkpt>
      <trkpt lat="46.17036" lon="6.58206">
        <ele>1601</ele>
        <time>2024-03-07T12:54:23Z</time>
      </trkpt>
      <trkpt lat="46.17036" lon="6.58213">
        <ele>1600</ele>
        <time>2024-03-07T12:54:57Z</time>
      </trkpt>
      <trkpt lat="46.17035" lon="6.5822">
        <ele>1600</ele>
        <time>2024-03-07T12:54:59Z</time>
      </trkpt>
      <trkpt lat="46.17031" lon="6.58228">
        <ele>1598</ele>
        <time>2024-03-07T12:55:01Z</time>
      </trkpt>
      <trkpt lat="46.17028" lon="6.58229">
        <ele>1597</ele>
        <time>2024-03-07T12:55:02Z</time>
      </trkpt>
      <trkpt lat="46.17024" lon="6.58228">
        <ele>1597</ele>
        <time>2024-03-07T12:55:03Z</time>
      </trkpt>
      <trkpt lat="46.17016" lon="6.58225">
        <ele>1595</ele>
        <time>2024-03-07T12:55:05Z</time>
      </trkpt>
      <trkpt lat="46.16998" lon="6.58227">
        <ele>1594</ele>
        <time>2024-03-07T12:55:10Z</time>
      </trkpt>
      <trkpt lat="46.16996" lon="6.58222">
        <ele>1593</ele>
        <time>2024-03-07T12:55:11Z</time>
      </trkpt>
      <trkpt lat="46.16993" lon="6.58221">
        <ele>1593</ele>
        <time>2024-03-07T12:55:12Z</time>
      </trkpt>
      <trkpt lat="46.16989" lon="6.58218">
        <ele>1593</ele>
        <time>2024-03-07T12:55:13Z</time>
      </trkpt>
      <trkpt lat="46.16974" lon="6.58203">
        <ele>1591</ele>
        <time>2024-03-07T12:55:16Z</time>
      </trkpt>
      <trkpt lat="46.1693" lon="6.58176">
        <ele>1588</ele>
        <time>2024-03-07T12:55:23Z</time>
      </trkpt>
      <trkpt lat="46.16913" lon="6.5816">
        <ele>1587</ele>
        <time>2024-03-07T12:55:31Z</time>
      </trkpt>
      <trkpt lat="46.16909" lon="6.58147">
        <ele>1587</ele>
        <time>2024-03-07T12:55:36Z</time>
      </trkpt>
      <trkpt lat="46.16899" lon="6.58123">
        <ele>1587</ele>
        <time>2024-03-07T12:55:48Z</time>
      </trkpt>
      <trkpt lat="46.16894" lon="6.58109">
        <ele>1585</ele>
        <time>2024-03-07T12:56:29Z</time>
      </trkpt>
      <trkpt lat="46.16886" lon="6.58095">
        <ele>1584</ele>
        <time>2024-03-07T12:56:33Z</time>
      </trkpt>
      <trkpt lat="46.16832" lon="6.58048">
        <ele>1580</ele>
        <time>2024-03-07T12:56:55Z</time>
      </trkpt>
      <trkpt lat="46.16808" lon="6.58038">
        <ele>1580</ele>
        <time>2024-03-07T12:57:01Z</time>
      </trkpt>
      <trkpt lat="46.168" lon="6.58033">
        <ele>1579</ele>
        <time>2024-03-07T12:57:03Z</time>
      </trkpt>
      <trkpt lat="46.16745" lon="6.5801">
        <ele>1577</ele>
        <time>2024-03-07T12:57:13Z</time>
      </trkpt>
      <trkpt lat="46.16709" lon="6.57981">
        <ele>1575</ele>
        <time>2024-03-07T12:57:19Z</time>
      </trkpt>
      <trkpt lat="46.16694" lon="6.57974">
        <ele>1573</ele>
        <time>2024-03-07T12:57:21Z</time>
      </trkpt>
      <trkpt lat="46.16635" lon="6.57919">
        <ele>1570</ele>
        <time>2024-03-07T12:57:29Z</time>
      </trkpt>
      <trkpt lat="46.16606" lon="6.57857">
        <ele>1567</ele>
        <time>2024-03-07T12:57:36Z</time>
      </trkpt>
      <trkpt lat="46.16598" lon="6.5785">
        <ele>1568</ele>
        <time>2024-03-07T12:57:39Z</time>
      </trkpt>
      <trkpt lat="46.16589" lon="6.57845">
        <ele>1572</ele>
        <time>2024-03-07T12:58:16Z</time>
      </trkpt>
      <trkpt lat="46.16582" lon="6.57836">
        <ele>1570</ele>
        <time>2024-03-07T12:58:33Z</time>
      </trkpt>
      <trkpt lat="46.16576" lon="6.57824">
        <ele>1569</ele>
        <time>2024-03-07T12:58:40Z</time>
      </trkpt>
      <trkpt lat="46.16569" lon="6.57816">
        <ele>1572</ele>
        <time>2024-03-07T12:58:54Z</time>
      </trkpt>
      <trkpt lat="46.16562" lon="6.57807">
        <ele>1574</ele>
        <time>2024-03-07T12:59:09Z</time>
      </trkpt>
      <trkpt lat="46.16549" lon="6.57789">
        <ele>1575</ele>
        <time>2024-03-07T12:59:33Z</time>
      </trkpt>
      <trkpt lat="46.16541" lon="6.57782">
        <ele>1575</ele>
        <time>2024-03-07T12:59:43Z</time>
      </trkpt>
      <trkpt lat="46.16506" lon="6.57715">
        <ele>1575</ele>
        <time>2024-03-07T13:00:17Z</time>
      </trkpt>
      <trkpt lat="46.16502" lon="6.57704">
        <ele>1578</ele>
        <time>2024-03-07T13:00:23Z</time>
      </trkpt>
      <trkpt lat="46.16501" lon="6.5769">
        <ele>1579</ele>
        <time>2024-03-07T13:00:29Z</time>
      </trkpt>
      <trkpt lat="46.16504" lon="6.57677">
        <ele>1580</ele>
        <time>2024-03-07T13:00:44Z</time>
      </trkpt>
      <trkpt lat="46.16499" lon="6.57667">
        <ele>1579</ele>
        <time>2024-03-07T13:01:02Z</time>
      </trkpt>
      <trkpt lat="46.16476" lon="6.57645">
        <ele>1577</ele>
        <time>2024-03-07T13:01:32Z</time>
      </trkpt>
      <trkpt lat="46.16472" lon="6.57633">
        <ele>1579</ele>
        <time>2024-03-07T13:03:20Z</time>
      </trkpt>
      <trkpt lat="46.16455" lon="6.57593">
        <ele>1581</ele>
        <time>2024-03-07T13:03:30Z</time>
      </trkpt>
      <trkpt lat="46.1645" lon="6.57576">
        <ele>1575</ele>
        <time>2024-03-07T13:03:33Z</time>
      </trkpt>
      <trkpt lat="46.16433" lon="6.57527">
        <ele>1575</ele>
        <time>2024-03-07T13:04:03Z</time>
      </trkpt>
      <trkpt lat="46.16424" lon="6.57499">
        <ele>1575</ele>
        <time>2024-03-07T13:04:09Z</time>
      </trkpt>
      <trkpt lat="46.1641" lon="6.57476">
        <ele>1575</ele>
        <time>2024-03-07T13:04:15Z</time>
      </trkpt>
      <trkpt lat="46.16402" lon="6.57465">
        <ele>1574</ele>
        <time>2024-03-07T13:04:18Z</time>
      </trkpt>
      <trkpt lat="46.16379" lon="6.57407">
        <ele>1573</ele>
        <time>2024-03-07T13:04:29Z</time>
      </trkpt>
      <trkpt lat="46.16349" lon="6.57327">
        <ele>1569</ele>
        <time>2024-03-07T13:04:45Z</time>
      </trkpt>
      <trkpt lat="46.16313" lon="6.57268">
        <ele>1567</ele>
        <time>2024-03-07T13:04:56Z</time>
      </trkpt>
      <trkpt lat="46.16292" lon="6.57213">
        <ele>1562</ele>
        <time>2024-03-07T13:05:04Z</time>
      </trkpt>
      <trkpt lat="46.16286" lon="6.57198">
        <ele>1562</ele>
        <time>2024-03-07T13:05:06Z</time>
      </trkpt>
      <trkpt lat="46.16283" lon="6.57183">
        <ele>1561</ele>
        <time>2024-03-07T13:05:08Z</time>
      </trkpt>
      <trkpt lat="46.16289" lon="6.57163">
        <ele>1558</ele>
        <time>2024-03-07T13:05:11Z</time>
      </trkpt>
      <trkpt lat="46.16289" lon="6.57157">
        <ele>1557</ele>
        <time>2024-03-07T13:05:12Z</time>
      </trkpt>
      <trkpt lat="46.16287" lon="6.57151">
        <ele>1557</ele>
        <time>2024-03-07T13:05:13Z</time>
      </trkpt>
      <trkpt lat="46.16288" lon="6.57141">
        <ele>1555</ele>
        <time>2024-03-07T13:05:59Z</time>
      </trkpt>
      <trkpt lat="46.16289" lon="6.57136">
        <ele>1555</ele>
        <time>2024-03-07T13:06:01Z</time>
      </trkpt>
      <trkpt lat="46.1629" lon="6.57132">
        <ele>1554</ele>
        <time>2024-03-07T13:06:03Z</time>
      </trkpt>
      <trkpt lat="46.16292" lon="6.57126">
        <ele>1554</ele>
        <time>2024-03-07T13:06:05Z</time>
      </trkpt>
      <trkpt lat="46.16291" lon="6.57119">
        <ele>1554</ele>
        <time>2024-03-07T13:06:07Z</time>
      </trkpt>
      <trkpt lat="46.1629" lon="6.5711">
        <ele>1553</ele>
        <time>2024-03-07T13:06:09Z</time>
      </trkpt>
      <trkpt lat="46.16293" lon="6.57084">
        <ele>1552</ele>
        <time>2024-03-07T13:06:14Z</time>
      </trkpt>
      <trkpt lat="46.16311" lon="6.57046">
        <ele>1549</ele>
        <time>2024-03-07T13:06:21Z</time>
      </trkpt>
      <trkpt lat="46.16314" lon="6.57033">
        <ele>1549</ele>
        <time>2024-03-07T13:06:23Z</time>
      </trkpt>
      <trkpt lat="46.16328" lon="6.56922">
        <ele>1544</ele>
        <time>2024-03-07T13:06:47Z</time>
      </trkpt>
      <trkpt lat="46.16337" lon="6.56891">
        <ele>1542</ele>
        <time>2024-03-07T13:06:51Z</time>
      </trkpt>
      <trkpt lat="46.16397" lon="6.56769">
        <ele>1534</ele>
        <time>2024-03-07T13:07:07Z</time>
      </trkpt>
      <trkpt lat="46.16406" lon="6.56755">
        <ele>1533</ele>
        <time>2024-03-07T13:07:09Z</time>
      </trkpt>
      <trkpt lat="46.16414" lon="6.5674">
        <ele>1532</ele>
        <time>2024-03-07T13:07:11Z</time>
      </trkpt>
      <trkpt lat="46.16431" lon="6.5671">
        <ele>1531</ele>
        <time>2024-03-07T13:07:15Z</time>
      </trkpt>
      <trkpt lat="46.16511" lon="6.56519">
        <ele>1522</ele>
        <time>2024-03-07T13:07:39Z</time>
      </trkpt>
      <trkpt lat="46.16548" lon="6.56473">
        <ele>1518</ele>
        <time>2024-03-07T13:07:47Z</time>
      </trkpt>
      <trkpt lat="46.16581" lon="6.5645">
        <ele>1515</ele>
        <time>2024-03-07T13:07:53Z</time>
      </trkpt>
      <trkpt lat="46.16631" lon="6.56438">
        <ele>1511</ele>
        <time>2024-03-07T13:08:01Z</time>
      </trkpt>
      <trkpt lat="46.16644" lon="6.5643">
        <ele>1510</ele>
        <time>2024-03-07T13:08:03Z</time>
      </trkpt>
      <trkpt lat="46.16675" lon="6.56393">
        <ele>1506</ele>
        <time>2024-03-07T13:08:09Z</time>
      </trkpt>
      <trkpt lat="46.16716" lon="6.56317">
        <ele>1504</ele>
        <time>2024-03-07T13:08:19Z</time>
      </trkpt>
      <trkpt lat="46.16725" lon="6.56308">
        <ele>1503</ele>
        <time>2024-03-07T13:08:21Z</time>
      </trkpt>
      <trkpt lat="46.16729" lon="6.56293">
        <ele>1503</ele>
        <time>2024-03-07T13:08:25Z</time>
      </trkpt>
      <trkpt lat="46.16737" lon="6.56288">
        <ele>1500</ele>
        <time>2024-03-07T13:08:47Z</time>
      </trkpt>
      <trkpt lat="46.16755" lon="6.56279">
        <ele>1493</ele>
        <time>2024-03-07T13:09:04Z</time>
      </trkpt>
      <trkpt lat="46.16771" lon="6.56265">
        <ele>1494</ele>
        <time>2024-03-07T13:09:28Z</time>
      </trkpt>
      <trkpt lat="46.16794" lon="6.56241">
        <ele>1492</ele>
        <time>2024-03-07T13:09:35Z</time>
      </trkpt>
      <trkpt lat="46.16813" lon="6.5621">
        <ele>1489</ele>
        <time>2024-03-07T13:09:41Z</time>
      </trkpt>
      <trkpt lat="46.16804" lon="6.56204">
        <ele>1491</ele>
        <time>2024-03-07T13:10:13Z</time>
      </trkpt>
      <trkpt lat="46.16792" lon="6.56177">
        <ele>1489</ele>
        <time>2024-03-07T13:10:18Z</time>
      </trkpt>
      <trkpt lat="46.16786" lon="6.56163">
        <ele>1486</ele>
        <time>2024-03-07T13:10:20Z</time>
      </trkpt>
      <trkpt lat="46.16779" lon="6.56149">
        <ele>1484</ele>
        <time>2024-03-07T13:10:22Z</time>
      </trkpt>
      <trkpt lat="46.16776" lon="6.56133">
        <ele>1480</ele>
        <time>2024-03-07T13:10:24Z</time>
      </trkpt>
      <trkpt lat="46.16777" lon="6.56119">
        <ele>1480</ele>
        <time>2024-03-07T13:10:26Z</time>
      </trkpt>
      <trkpt lat="46.16777" lon="6.56089">
        <ele>1477</ele>
        <time>2024-03-07T13:10:30Z</time>
      </trkpt>
      <trkpt lat="46.16776" lon="6.56056">
        <ele>1475</ele>
        <time>2024-03-07T13:10:34Z</time>
      </trkpt>
      <trkpt lat="46.16773" lon="6.56044">
        <ele>1473</ele>
        <time>2024-03-07T13:10:38Z</time>
      </trkpt>
      <trkpt lat="46.16772" lon="6.56031">
        <ele>1472</ele>
        <time>2024-03-07T13:10:49Z</time>
      </trkpt>
      <trkpt lat="46.16763" lon="6.56006">
        <ele>1471</ele>
        <time>2024-03-07T13:11:00Z</time>
      </trkpt>
      <trkpt lat="46.16744" lon="6.55968">
        <ele>1469</ele>
        <time>2024-03-07T13:11:07Z</time>
      </trkpt>
      <trkpt lat="46.16731" lon="6.5592">
        <ele>1468</ele>
        <time>2024-03-07T13:11:13Z</time>
      </trkpt>
      <trkpt lat="46.16665" lon="6.55843">
        <ele>1460</ele>
        <time>2024-03-07T13:11:25Z</time>
      </trkpt>
      <trkpt lat="46.1664" lon="6.55808">
        <ele>1456</ele>
        <time>2024-03-07T13:11:31Z</time>
      </trkpt>
      <trkpt lat="46.16622" lon="6.55784">
        <ele>1451</ele>
        <time>2024-03-07T13:11:35Z</time>
      </trkpt>
      <trkpt lat="46.1661" lon="6.55778">
        <ele>1450</ele>
        <time>2024-03-07T13:11:37Z</time>
      </trkpt>
      <trkpt lat="46.16601" lon="6.55771">
        <ele>1447</ele>
        <time>2024-03-07T13:11:42Z</time>
      </trkpt>
      <trkpt lat="46.16594" lon="6.55761">
        <ele>1446</ele>
        <time>2024-03-07T13:11:46Z</time>
      </trkpt>
      <trkpt lat="46.16603" lon="6.55734">
        <ele>1442</ele>
        <time>2024-03-07T13:11:52Z</time>
      </trkpt>
      <trkpt lat="46.16607" lon="6.55718">
        <ele>1439</ele>
        <time>2024-03-07T13:11:55Z</time>
      </trkpt>
      <trkpt lat="46.166" lon="6.55686">
        <ele>1440</ele>
        <time>2024-03-07T13:12:01Z</time>
      </trkpt>
      <trkpt lat="46.16554" lon="6.55631">
        <ele>1435</ele>
        <time>2024-03-07T13:12:16Z</time>
      </trkpt>
      <trkpt lat="46.16516" lon="6.55572">
        <ele>1432</ele>
        <time>2024-03-07T13:12:31Z</time>
      </trkpt>
      <trkpt lat="46.16487" lon="6.55493">
        <ele>1431</ele>
        <time>2024-03-07T13:12:56Z</time>
      </trkpt>
      <trkpt lat="46.16482" lon="6.55481">
        <ele>1430</ele>
        <time>2024-03-07T13:13:01Z</time>
      </trkpt>
      <trkpt lat="46.16467" lon="6.5543">
        <ele>1429</ele>
        <time>2024-03-07T13:13:31Z</time>
      </trkpt>
      <trkpt lat="46.16466" lon="6.55416">
        <ele>1429</ele>
        <time>2024-03-07T13:13:44Z</time>
      </trkpt>
      <trkpt lat="46.16468" lon="6.55403">
        <ele>1427</ele>
        <time>2024-03-07T13:13:53Z</time>
      </trkpt>
      <trkpt lat="46.16471" lon="6.5539">
        <ele>1428</ele>
        <time>2024-03-07T13:14:06Z</time>
      </trkpt>
      <trkpt lat="46.16474" lon="6.55377">
        <ele>1431</ele>
        <time>2024-03-07T13:14:18Z</time>
      </trkpt>
      <trkpt lat="46.16475" lon="6.55351">
        <ele>1432</ele>
        <time>2024-03-07T13:14:46Z</time>
      </trkpt>
      <trkpt lat="46.16473" lon="6.55338">
        <ele>1432</ele>
        <time>2024-03-07T13:15:00Z</time>
      </trkpt>
      <trkpt lat="46.16476" lon="6.55326">
        <ele>1434</ele>
        <time>2024-03-07T13:15:21Z</time>
      </trkpt>
      <trkpt lat="46.16482" lon="6.55316">
        <ele>1435</ele>
        <time>2024-03-07T13:15:35Z</time>
      </trkpt>
      <trkpt lat="46.16486" lon="6.55303">
        <ele>1436</ele>
        <time>2024-03-07T13:15:45Z</time>
      </trkpt>
      <trkpt lat="46.16489" lon="6.5529">
        <ele>1436</ele>
        <time>2024-03-07T13:15:57Z</time>
      </trkpt>
      <trkpt lat="46.16487" lon="6.55277">
        <ele>1436</ele>
        <time>2024-03-07T13:16:11Z</time>
      </trkpt>
      <trkpt lat="46.16485" lon="6.55264">
        <ele>1439</ele>
        <time>2024-03-07T13:17:06Z</time>
      </trkpt>
      <trkpt lat="46.16478" lon="6.55256">
        <ele>1440</ele>
        <time>2024-03-07T13:17:21Z</time>
      </trkpt>
      <trkpt lat="46.16469" lon="6.55254">
        <ele>1440</ele>
        <time>2024-03-07T13:17:33Z</time>
      </trkpt>
      <trkpt lat="46.16451" lon="6.55246">
        <ele>1437</ele>
        <time>2024-03-07T13:17:52Z</time>
      </trkpt>
    </trkseg>
  </trk>
</gpx>